Latest Weather Observations for Strathalbyn

IDS60901

Issued at 4:51 pm CST Tuesday 30 August 2016 (issued every 10 minutes, with the page automatically refreshed every 10 minutes)

About weather observations | Map of Adelaide area stations | Latest observations for Adelaide area | Other Formats
Station Details ID: 024580 Name: STRATHALBYN RACECOURSE Lat: -35.28 Lon: 138.89 Height: 58.0 m
Data from the previous 72 hours. | See also: Recent months at Strathalbyn
Date/Time
CST
Temp
°C
App
Temp
°C
Dew
Point
°C
Rel
Hum
%
Delta-T
°C
Wind Press
QNH
hPa
Press
MSL
hPa
Rain since
9am
mm
Dir  Spd
km/h
Gust
km/h
Spd
kts
Gust
kts
30/04:30pm 19.0 17.3 11.3 61 4.2 NNW 11 19 6 10 1009.6 - 0.0
30/04:00pm 19.3 17.0 11.6 61 4.2 NNW 15 19 8 10 1009.6 - 0.0
30/03:30pm 19.4 16.1 10.9 58 4.6 NNW 19 26 10 14 1009.7 - 0.0
30/03:00pm 19.4 17.4 12.7 65 3.8 NNW 15 26 8 14 1010.0 1010.0 0.0
30/02:30pm 18.8 17.1 12.3 66 3.6 NW 13 19 7 10 1010.2 - 0.0
30/02:00pm 19.2 17.3 12.9 67 3.6 NNW 15 20 8 11 1010.3 - 0.0
30/01:30pm 18.8 15.9 12.8 68 3.4 NNW 20 26 11 14 1010.5 - 0.0
30/01:00pm 18.3 15.5 12.5 69 3.2 N 19 28 10 15 1010.9 - 0.0
30/12:30pm 18.3 15.3 12.5 69 3.2 NNW 20 30 11 16 1011.0 - 0.0
30/12:00pm 17.4 14.1 12.9 75 2.5 NNW 22 30 12 16 1011.2 1011.2 0.0
30/11:30am 16.9 13.9 12.4 75 2.5 N 20 30 11 16 1011.4 - 0.0
30/11:00am 16.8 13.6 11.9 73 2.7 N 20 28 11 15 1011.5 - 0.0
30/10:30am 16.6 15.0 12.8 78 2.1 N 13 19 7 10 1011.5 - 0.0
30/10:00am 14.5 15.3 12.4 87 1.1 CALM 0 6 0 3 1011.9 - 0.0
30/09:30am 14.1 13.1 12.3 89 1.0 NNE 9 11 5 6 1012.1 - 0.0
30/09:00am 13.2 11.7 11.9 92 0.7 NNE 11 15 6 8 1012.3 1012.3 1.0
30/08:30am 12.6 10.1 11.2 91 0.7 NNE 15 19 8 10 1012.3 - 1.0
30/08:00am 12.4 9.8 10.8 90 0.8 NNE 15 19 8 10 1012.3 - 0.6
30/07:30am 12.3 10.1 10.7 90 0.8 NE 13 19 7 10 1012.0 - 0.6
30/07:00am 12.2 9.9 10.4 89 0.9 NE 13 15 7 8 1011.8 - 0.6
30/06:30am 12.3 9.6 10.2 87 1.1 NE 15 19 8 10 1011.9 - 0.6
30/06:00am 12.5 9.8 10.2 86 1.2 NE 15 17 8 9 1011.6 1011.6 0.6
30/05:30am 12.7 10.7 10.2 85 1.3 NE 11 13 6 7 1011.8 - 0.6
30/05:00am 12.7 10.3 9.9 83 1.4 NNE 13 15 7 8 1011.6 - 0.6
30/04:30am 13.1 10.0 10.3 83 1.5 NNE 17 20 9 11 1012.0 - 0.6
30/04:00am 13.5 11.1 10.1 80 1.8 N 13 17 7 9 1012.1 - 0.6
30/03:30am 14.3 11.5 9.9 75 2.3 N 15 20 8 11 1012.3 - 0.6
30/03:00am 14.9 11.1 9.7 71 2.7 N 20 28 11 15 1012.2 1012.2 0.6
30/02:30am 14.2 12.1 9.6 74 2.4 NNE 11 15 6 8 1012.6 - 0.6
30/02:00am 14.8 11.5 9.4 70 2.8 N 17 22 9 12 1012.7 - 0.6
30/01:30am 12.3 9.7 9.5 83 1.4 E 13 15 7 8 1012.4 - 0.6
30/01:00am 12.6 10.8 9.4 81 1.6 ENE 9 13 5 7 1012.6 - 0.6
30/12:30am 13.4 10.1 9.5 77 2.0 NE 17 24 9 13 1013.0 - 0.6
30/12:00am 13.5 9.8 9.4 76 2.1 NE 19 24 10 13 1012.8 1012.8 0.6
 
Date/Time
CST
Temp
°C
App
Temp
°C
Dew
Point
°C
Rel
Hum
%
Delta-T
°C
Wind Press
QNH
hPa
Press
MSL
hPa
Rain since
9am
mm
Dir  Spd
km/h
Gust
km/h
Spd
kts
Gust
kts
29/11:30pm 13.8 9.5 9.3 74 2.3 NNE 22 30 12 16 1012.9 - 0.4
29/11:00pm 13.9 9.3 9.5 75 2.3 NNE 24 33 13 18 1012.8 - 0.4
29/10:30pm 14.0 9.4 9.8 76 2.2 NNE 24 32 13 17 1013.3 - 0.4
29/10:00pm 13.7 8.8 9.9 78 2.0 NNE 26 35 14 19 1013.2 - 0.4
29/09:30pm 13.8 8.9 10.0 78 2.0 NNE 26 37 14 20 1012.6 - 0.4
29/09:00pm 14.0 9.1 10.0 77 2.1 NE 26 37 14 20 1012.3 1012.3 0.4
29/08:30pm 14.4 10.2 9.6 73 2.5 NNE 22 33 12 18 1013.4 - 0.4
29/08:00pm 14.6 10.0 9.6 72 2.6 NNE 24 32 13 17 1013.6 - 0.4
29/07:30pm 14.2 10.5 10.0 76 2.2 NE 20 26 11 14 1013.3 - 0.4
29/07:00pm 14.4 10.7 10.0 75 2.3 NNE 20 28 11 15 1013.5 - 0.4
29/06:30pm 14.4 10.3 10.2 76 2.2 NNE 22 30 12 16 1013.1 - 0.4
29/06:00pm 14.7 10.9 9.9 73 2.5 N 20 32 11 17 1013.1 1013.1 0.4
29/05:30pm 15.6 10.6 9.5 67 3.2 N 26 35 14 19 1012.9 - 0.2
29/05:00pm 17.7 10.3 6.9 49 5.4 N 35 44 19 24 1012.0 - 0.2
29/04:30pm 18.8 14.2 6.6 45 6.1 NNE 20 30 11 16 1011.1 - 0.2
29/04:00pm 18.4 15.0 7.8 50 5.4 NE 15 20 8 11 1011.1 - 0.2
29/03:30pm 18.8 13.9 6.9 46 6.0 NNE 22 30 12 16 1011.6 - 0.2
29/03:00pm 19.0 14.1 7.1 46 6.0 NNE 22 30 12 16 1012.0 1012.0 0.2
29/02:30pm 19.2 12.4 6.7 44 6.3 NNE 32 43 17 23 1012.1 - 0.2
29/02:00pm 19.3 13.1 8.0 48 5.8 NNE 30 41 16 22 1012.3 - 0.2
29/01:30pm 18.5 13.0 7.6 49 5.5 NE 26 39 14 21 1012.5 - 0.2
29/01:00pm 18.1 12.0 8.1 52 5.1 NE 30 39 16 21 1012.8 - 0.2
29/12:30pm 18.3 13.8 6.8 47 5.8 NNE 20 28 11 15 1013.4 - 0.2
29/12:00pm 17.5 13.3 9.7 60 4.1 NE 22 33 12 18 1014.0 1014.0 0.2
29/11:30am 16.7 15.3 9.4 62 3.8 ENE 7 11 4 6 1014.4 - 0.2
29/11:00am 14.0 11.2 8.4 69 2.8 E 13 20 7 11 1014.8 - 0.2
29/10:30am 13.0 11.0 8.7 75 2.2 ENE 9 13 5 7 1015.4 - 0.2
29/10:00am 12.3 10.1 7.8 74 2.2 NNE 9 13 5 7 1016.1 - 0.0
29/09:30am 11.7 9.0 7.4 75 2.1 NE 11 15 6 8 1016.2 - 0.0
29/09:00am 11.3 8.6 7.4 77 1.9 N 11 11 6 6 1016.5 1016.6 2.2
29/08:30am 10.8 8.9 7.7 81 1.5 N 7 9 4 5 1016.5 - 2.2
29/08:00am 10.4 8.4 7.3 81 1.5 N 7 11 4 6 1016.3 - 2.2
29/07:30am 10.5 8.8 7.7 83 1.4 N 6 7 3 4 1016.1 - 2.0
29/07:00am 10.5 9.3 7.9 84 1.3 N 4 7 2 4 1016.0 - 1.8
29/06:30am 10.5 7.9 7.9 84 1.3 NE 11 13 6 7 1015.8 - 1.6
29/06:00am 10.9 9.0 7.4 79 1.7 N 7 11 4 6 1015.6 1015.7 1.2
29/05:30am 11.6 8.3 6.5 71 2.4 N 13 17 7 9 1015.4 - 0.8
29/05:00am 12.0 8.3 6.1 67 2.8 NNE 15 22 8 12 1015.0 - 0.6
29/04:30am 11.8 8.2 6.9 72 2.3 N 15 19 8 10 1014.7 - 0.6
29/04:00am 11.8 8.9 6.7 71 2.4 NNE 11 13 6 7 1014.7 - 0.6
29/03:30am 11.7 9.2 6.4 70 2.5 NE 9 13 5 7 1015.1 - 0.2
29/03:00am 12.4 9.4 6.2 66 2.9 NE 11 13 6 7 1015.1 1015.2 0.2
29/02:30am 12.6 8.0 5.8 63 3.2 NNE 19 24 10 13 1015.5 - 0.2
29/02:00am 13.5 9.4 4.1 53 4.3 NNE 15 19 8 10 1015.7 - 0.0
29/01:30am 15.7 10.0 0.3 35 6.6 NNE 20 28 11 15 1015.6 - 0.0
29/01:00am 13.7 9.6 2.0 45 5.1 N 13 17 7 9 1015.5 - 0.0
29/12:30am 14.0 9.4 1.3 42 5.5 N 15 20 8 11 1015.4 - 0.0
29/12:00am 14.4 9.0 1.0 40 5.8 NNE 19 22 10 12 1015.4 1015.5 0.0
 
Date/Time
CST
Temp
°C
App
Temp
°C
Dew
Point
°C
Rel
Hum
%
Delta-T
°C
Wind Press
QNH
hPa
Press
MSL
hPa
Rain since
9am
mm
Dir  Spd
km/h
Gust
km/h
Spd
kts
Gust
kts
28/11:30pm 15.0 9.6 1.2 39 6.0 N 19 24 10 13 1015.4 - 0.0
28/11:00pm 15.7 9.3 0.7 36 6.5 N 24 32 13 17 1015.4 - 0.0
28/10:30pm 15.5 10.6 2.0 40 6.0 N 17 24 9 13 1015.5 - 0.0
28/10:00pm 13.9 9.5 2.8 47 4.9 N 15 17 8 9 1015.7 - 0.0
28/09:30pm 14.0 9.6 2.6 46 5.1 NNE 15 20 8 11 1015.2 - 0.0
28/09:00pm 13.6 9.3 3.4 50 4.6 NNE 15 20 8 11 1015.2 1015.3 0.0
28/08:30pm 13.0 9.2 3.7 53 4.2 N 13 15 7 8 1015.2 - 0.0
28/08:00pm 13.3 9.2 4.2 54 4.2 NNE 15 17 8 9 1015.3 - 0.0
28/07:30pm 12.9 9.5 4.1 55 4.0 NNE 11 13 6 7 1015.3 - 0.0
28/07:00pm 12.7 9.0 4.4 57 3.8 NNE 13 15 7 8 1014.9 - 0.0
28/06:30pm 13.8 10.1 4.4 53 4.3 NNE 13 15 7 8 1014.6 - 0.0
28/06:00pm 15.0 10.8 3.8 47 5.1 NNE 15 17 8 9 1014.2 1014.3 0.0
28/05:30pm 17.2 12.5 3.1 39 6.5 NNE 17 24 9 13 1013.7 - 0.0
28/05:00pm 18.7 12.0 1.7 32 7.7 NNE 26 35 14 19 1013.3 - 0.0
28/04:30pm 19.5 12.1 1.9 31 8.1 NNE 30 41 16 22 1013.1 - 0.0
28/04:00pm 20.1 13.3 3.3 33 7.9 NNE 28 41 15 22 1013.4 - 0.0
28/03:30pm 20.2 13.8 5.1 37 7.4 NNE 28 39 15 21 1013.5 - 0.0
28/03:00pm 20.2 13.2 4.3 35 7.7 NE 30 41 16 22 1013.7 1013.7 0.0
28/02:30pm 20.9 14.6 5.7 37 7.6 NNE 28 37 15 20 1013.9 - 0.0
28/02:00pm 21.4 15.6 4.5 33 8.3 NNE 24 32 13 17 1014.1 - 0.0
28/01:30pm 20.4 14.5 4.0 34 7.9 NNE 24 35 13 19 1014.5 - 0.0
28/01:00pm 20.0 14.0 3.3 33 7.9 NNE 24 32 13 17 1015.0 - 0.0
28/12:30pm 20.7 14.2 2.5 30 8.5 N 26 35 14 19 1015.5 - 0.0
28/12:00pm 20.6 15.0 3.3 32 8.2 N 22 35 12 19 1016.0 1016.1 0.0
28/11:30am 20.0 14.3 2.8 32 8.1 N 22 33 12 18 1016.4 - 0.0
28/11:00am 18.5 12.7 2.4 34 7.4 N 22 33 12 18 1016.7 - 0.0
28/10:30am 19.5 13.8 2.8 33 7.8 NNE 22 28 12 15 1017.0 - 0.0
28/10:00am 18.5 13.6 3.9 38 6.9 NNE 19 26 10 14 1017.3 - 0.0
28/09:30am 16.3 12.5 5.6 49 5.2 NNE 15 24 8 13 1017.3 - 0.0
28/09:00am 16.6 12.6 4.9 46 5.6 NE 15 20 8 11 1017.3 1017.4 0.0
28/08:30am 13.6 10.3 4.7 55 4.1 NNE 11 13 6 7 1017.5 - 0.0
28/08:00am 12.5 8.7 4.0 56 3.8 N 13 15 7 8 1017.6 - 0.0
28/07:30am 9.6 6.1 3.4 65 2.7 N 11 15 6 8 1017.5 - 0.0
28/07:00am 6.2 3.2 2.3 76 1.6 NNE 7 11 4 6 1017.4 - 0.0
28/06:30am 6.0 2.8 1.0 70 2.0 N 7 9 4 5 1017.3 - 0.0
28/06:00am 8.0 4.6 1.8 65 2.5 N 9 11 5 6 1017.2 1017.3 0.0
28/05:30am 8.0 4.3 2.3 67 2.4 NNE 11 13 6 7 1017.2 - 0.0
28/05:00am 7.4 4.4 2.3 70 2.1 NNE 7 11 4 6 1017.0 - 0.0
28/04:30am 8.2 4.9 2.7 68 2.3 N 9 11 5 6 1016.9 - 0.0
28/04:00am 9.8 6.3 3.3 64 2.8 N 11 13 6 7 1016.9 - 0.0
28/03:30am 9.7 6.6 3.4 65 2.7 N 9 11 5 6 1017.0 - 0.0
28/03:00am 9.1 5.6 3.7 69 2.3 N 11 13 6 7 1017.3 1017.4 0.0
28/02:30am 9.3 5.5 3.7 68 2.4 NW 13 15 7 8 1017.5 - 0.0
28/02:00am 9.3 5.9 3.9 69 2.4 NNW 11 13 6 7 1017.7 - 0.0
28/01:30am 8.2 4.6 2.9 69 2.2 N 11 13 6 7 1018.0 - 0.0
28/01:00am 8.7 5.9 3.1 68 2.4 N 7 9 4 5 1018.1 - 0.0
28/12:30am 10.3 6.8 3.3 62 3.1 N 11 20 6 11 1018.0 - 0.0
28/12:00am 9.0 5.5 3.6 69 2.3 N 11 13 6 7 1018.0 1018.1 0.0
 
Date/Time
CST
Temp
°C
App
Temp
°C
Dew
Point
°C
Rel
Hum
%
Delta-T
°C
Wind Press
QNH
hPa
Press
MSL
hPa
Rain since
9am
mm
Dir  Spd
km/h
Gust
km/h
Spd
kts
Gust
kts
27/11:30pm 8.9 5.4 3.7 70 2.3 N 11 13 6 7 1017.9 - 0.0
27/11:00pm 9.1 6.1 4.3 72 2.1 NNW 9 11 5 6 1018.0 - 0.0
27/10:30pm 9.2 5.8 4.0 70 2.3 N 11 13 6 7 1018.3 - 0.0
27/10:00pm 10.8 7.0 3.8 62 3.1 NNW 13 17 7 9 1018.3 - 0.0
27/09:30pm 11.2 7.5 4.2 62 3.1 NNW 13 15 7 8 1018.6 - 0.0
27/09:00pm 10.4 7.2 5.0 69 2.4 NNW 11 15 6 8 1018.7 1018.8 0.0
27/08:30pm 9.8 6.6 5.2 73 2.1 N 11 15 6 8 1018.8 - 0.0
27/08:00pm 9.6 6.4 5.2 74 2.0 N 11 13 6 7 1018.8 - 0.0
27/07:30pm 10.4 6.8 5.0 69 2.5 N 13 13 7 7 1018.7 - 0.0
27/07:00pm 10.2 7.4 5.2 71 2.3 NNW 9 11 5 6 1018.7 - 0.0
27/06:30pm 11.5 8.6 4.9 64 3.0 N 9 11 5 6 1018.5 - 0.0
27/06:00pm 12.4 9.5 4.9 60 3.4 N 9 11 5 6 1018.2 1018.3 0.0
27/05:30pm 13.8 10.4 3.9 51 4.5 N 11 13 6 7 1018.1 - 0.0
27/05:00pm 14.5 11.6 4.5 51 4.6 N 9 11 5 6 1017.9 - 0.0

Latest Capital City Observations: Canberra | Sydney | Melbourne | Brisbane | Adelaide | Perth | Hobart | Darwin

Other Formats:

Comma delimited format used in spreadsheet applications
http://www.bom.gov.au/fwo/IDS60901/IDS60901.94814.axf

JavaScript Object Notation format (JSON) in row-major order
http://www.bom.gov.au/fwo/IDS60901/IDS60901.94814.json